createdAt,value
2024-04-13T00:02:23.586Z,23.90
2024-04-13T00:04:51.799Z,23.90
2024-04-13T00:07:20.097Z,23.80
2024-04-13T00:09:47.070Z,23.80
2024-04-13T00:12:14.247Z,23.80
2024-04-13T00:14:41.256Z,23.80
2024-04-13T00:17:08.930Z,23.80
2024-04-13T00:19:37.227Z,23.70
2024-04-13T00:22:05.830Z,23.70
2024-04-13T00:24:33.795Z,23.70
2024-04-13T00:27:02.592Z,23.60
2024-04-13T00:29:30.496Z,23.60
2024-04-13T00:31:58.473Z,23.60
2024-04-13T00:34:25.607Z,23.60
2024-04-13T00:36:52.602Z,23.50
2024-04-13T00:39:20.419Z,23.50
2024-04-13T00:41:48.036Z,23.50
2024-04-13T00:44:15.031Z,23.50
2024-04-13T00:46:43.959Z,23.50
2024-04-13T00:49:21.022Z,23.40
2024-04-13T00:51:50.085Z,23.40
2024-04-13T00:54:19.898Z,23.50
2024-04-13T00:56:51.665Z,23.40
2024-04-13T00:59:24.043Z,23.50
2024-04-13T01:01:53.563Z,23.40
2024-04-13T01:04:22.668Z,23.40
2024-04-13T01:06:53.272Z,23.40
2024-04-13T01:09:21.616Z,23.30
2024-04-13T01:11:49.160Z,23.30
2024-04-13T01:14:16.442Z,23.20
2024-04-13T01:16:45.229Z,23.30
2024-04-13T01:19:13.225Z,23.30
2024-04-13T01:21:41.120Z,23.20
2024-04-13T01:24:09.152Z,23.10
2024-04-13T01:26:40.497Z,23.10
2024-04-13T01:29:08.445Z,23.10
2024-04-13T01:31:37.669Z,23.00
2024-04-13T01:34:05.379Z,23.00
2024-04-13T01:36:50.432Z,22.90
2024-04-13T01:39:17.543Z,22.90
2024-04-13T01:41:52.833Z,22.90
2024-04-13T01:44:20.084Z,22.80
2024-04-13T01:46:47.286Z,22.80
2024-04-13T01:49:14.289Z,22.80
2024-04-13T01:51:41.362Z,22.80
2024-04-13T01:54:08.611Z,22.70
2024-04-13T01:56:35.632Z,22.70
2024-04-13T01:59:02.585Z,22.70
2024-04-13T02:01:32.198Z,22.60
2024-04-13T02:03:59.386Z,22.60
2024-04-13T02:06:26.575Z,22.60
2024-04-13T02:08:54.755Z,22.60
2024-04-13T02:13:50.257Z,22.60
2024-04-13T02:16:17.206Z,22.50
2024-04-13T02:18:44.252Z,22.50
2024-04-13T02:21:11.325Z,22.40
2024-04-13T02:23:38.734Z,22.40
2024-04-13T02:26:08.971Z,22.30
2024-04-13T02:28:36.342Z,22.30
2024-04-13T02:31:03.417Z,22.30
2024-04-13T02:33:30.563Z,22.30
2024-04-13T02:36:05.120Z,22.20
2024-04-13T02:38:33.920Z,22.20
2024-04-13T02:41:01.843Z,22.20
2024-04-13T02:43:32.373Z,22.20
2024-04-13T02:46:06.140Z,22.20
2024-04-13T02:48:33.115Z,22.10
2024-04-13T02:51:00.455Z,22.10
2024-04-13T02:53:27.498Z,22.20
2024-04-13T02:55:54.445Z,22.10
2024-04-13T02:58:21.428Z,22.10
2024-04-13T03:00:59.271Z,22.00
2024-04-13T03:03:29.879Z,22.00
2024-04-13T03:06:04.926Z,22.00
2024-04-13T03:08:32.464Z,22.00
2024-04-13T03:11:02.043Z,22.00
2024-04-13T03:13:30.549Z,21.90
2024-04-13T03:16:01.146Z,21.90
2024-04-13T03:18:28.293Z,21.90
2024-04-13T03:20:55.565Z,21.90
2024-04-13T03:23:22.670Z,21.80
2024-04-13T03:25:49.694Z,21.80
2024-04-13T03:28:16.676Z,21.80
2024-04-13T03:30:43.670Z,21.80
2024-04-13T03:33:10.663Z,21.80
2024-04-13T03:35:39.272Z,21.70
2024-04-13T03:38:07.845Z,21.70
2024-04-13T03:40:38.335Z,21.70
2024-04-13T03:43:05.428Z,21.70
2024-04-13T03:45:32.615Z,21.70
2024-04-13T03:47:59.804Z,21.70
2024-04-13T03:50:27.123Z,21.70
2024-04-13T03:52:54.102Z,21.70
2024-04-13T03:55:21.039Z,21.60
2024-04-13T03:57:48.590Z,21.70
2024-04-13T04:00:16.051Z,21.70
2024-04-13T04:02:42.997Z,21.60
2024-04-13T04:05:09.962Z,21.60
2024-04-13T04:07:36.901Z,21.50
2024-04-13T04:10:06.336Z,21.50
2024-04-13T04:12:33.452Z,21.40
2024-04-13T04:15:01.356Z,21.40
2024-04-13T04:17:28.334Z,21.40
2024-04-13T04:19:55.365Z,21.40
2024-04-13T04:22:22.289Z,21.40
2024-04-13T04:24:49.266Z,21.40
2024-04-13T04:27:16.297Z,21.40
2024-04-13T04:29:44.339Z,21.30
2024-04-13T04:32:11.547Z,21.30
2024-04-13T04:34:38.502Z,21.30
2024-04-13T04:37:05.648Z,21.30
2024-04-13T04:39:32.758Z,21.30
2024-04-13T04:42:00.639Z,21.30
2024-04-13T04:44:27.587Z,21.20
2024-04-13T04:46:54.840Z,21.20
2024-04-13T04:49:21.922Z,21.20
2024-04-13T04:51:48.907Z,21.20
2024-04-13T04:54:15.899Z,21.20
2024-04-13T04:56:42.879Z,21.10
2024-04-13T04:59:10.888Z,21.10
2024-04-13T05:01:37.840Z,21.10
2024-04-13T05:04:06.259Z,21.10
2024-04-13T05:06:34.565Z,21.10
2024-04-13T05:09:01.535Z,21.00
2024-04-13T05:11:28.522Z,21.00
2024-04-13T05:13:55.508Z,21.00
2024-04-13T05:16:23.574Z,20.90
2024-04-13T05:18:50.634Z,20.90
2024-04-13T05:21:17.689Z,20.90
2024-04-13T05:23:45.068Z,20.80
2024-04-13T05:26:12.021Z,20.80
2024-04-13T05:28:38.958Z,20.80
2024-04-13T05:31:10.643Z,20.70
2024-04-13T05:33:38.021Z,20.80
2024-04-13T05:36:05.765Z,20.70
2024-04-13T05:38:33.062Z,20.70
2024-04-13T05:41:00.729Z,20.70
2024-04-13T05:43:27.658Z,20.70
2024-04-13T05:45:55.092Z,20.70
2024-04-13T05:48:22.946Z,20.70
2024-04-13T05:50:57.670Z,20.80
2024-04-13T05:53:26.842Z,20.80
2024-04-13T05:55:53.826Z,20.70
2024-04-13T05:58:21.214Z,20.80
2024-04-13T06:00:48.911Z,20.70
2024-04-13T06:03:16.337Z,20.80
2024-04-13T06:05:43.894Z,20.80
2024-04-13T06:08:11.358Z,20.80
2024-04-13T06:10:38.475Z,20.80
2024-04-13T06:13:05.641Z,20.80
2024-04-13T06:15:32.655Z,20.80
2024-04-13T06:18:00.258Z,20.90
2024-04-13T06:20:27.250Z,20.90
2024-04-13T06:22:54.204Z,20.90
2024-04-13T06:25:22.236Z,21.00
2024-04-13T06:27:50.744Z,21.00
2024-04-13T06:30:17.895Z,21.00
2024-04-13T06:32:44.973Z,21.10
2024-04-13T06:35:12.142Z,21.10
2024-04-13T06:37:39.107Z,21.10
2024-04-13T06:40:06.600Z,21.10
2024-04-13T06:42:35.381Z,21.20
2024-04-13T06:45:03.004Z,21.20
2024-04-13T06:47:31.593Z,21.30
2024-04-13T06:49:59.775Z,21.30
2024-04-13T06:52:26.845Z,21.30
2024-04-13T06:54:53.816Z,21.30
2024-04-13T06:57:20.875Z,21.30
2024-04-13T06:59:47.876Z,21.30
2024-04-13T07:02:14.813Z,21.40
2024-04-13T07:04:42.072Z,21.40
2024-04-13T07:07:09.188Z,21.50
2024-04-13T07:09:36.205Z,21.50
2024-04-13T07:12:03.997Z,21.50
2024-04-13T07:14:31.754Z,21.60
2024-04-13T07:16:59.019Z,21.60
2024-04-13T07:19:27.149Z,21.60
2024-04-13T07:21:54.372Z,21.70
2024-04-13T07:24:21.352Z,21.80
2024-04-13T07:26:48.287Z,21.80
2024-04-13T07:29:15.273Z,21.90
2024-04-13T07:31:42.233Z,22.00
2024-04-13T07:34:09.213Z,22.00
2024-04-13T07:36:36.202Z,22.10
2024-04-13T07:39:03.195Z,22.10
2024-04-13T07:41:30.198Z,22.20
2024-04-13T07:43:57.181Z,22.20
2024-04-13T07:46:26.297Z,22.30
2024-04-13T07:48:53.453Z,22.40
2024-04-13T07:51:22.118Z,22.40
2024-04-13T07:53:49.106Z,22.50
2024-04-13T07:56:16.406Z,22.60
2024-04-13T07:58:43.697Z,22.60
2024-04-13T08:01:11.227Z,22.70
2024-04-13T08:03:38.398Z,22.70
2024-04-13T08:06:05.683Z,22.80
2024-04-13T08:08:32.648Z,22.90
2024-04-13T08:11:01.422Z,22.90
2024-04-13T08:13:28.644Z,23.00
2024-04-13T08:15:56.261Z,23.10
2024-04-13T08:18:23.308Z,23.20
2024-04-13T08:20:51.454Z,23.20
2024-04-13T08:23:18.391Z,23.20
2024-04-13T08:25:45.514Z,23.30
2024-04-13T08:28:13.506Z,23.50
2024-04-13T08:30:40.801Z,23.80
2024-04-13T08:33:07.878Z,24.20
2024-04-13T08:35:34.917Z,24.70
2024-04-13T08:38:01.879Z,25.30
2024-04-13T08:40:29.026Z,25.90
2024-04-13T08:42:59.101Z,26.50
2024-04-13T08:45:27.013Z,27.10
2024-04-13T08:47:55.750Z,27.50
2024-04-13T08:50:23.326Z,27.80
2024-04-13T08:52:51.285Z,27.90
2024-04-13T08:55:19.396Z,28.10
2024-04-13T08:57:47.737Z,28.10
2024-04-13T09:00:17.671Z,28.10
2024-04-13T09:02:51.795Z,28.00
2024-04-13T09:05:19.905Z,27.90
2024-04-13T09:07:47.972Z,27.80
2024-04-13T09:10:16.773Z,27.80
2024-04-13T09:12:43.880Z,27.70
2024-04-13T09:15:11.206Z,27.60
2024-04-13T09:17:38.336Z,27.60
2024-04-13T09:20:09.490Z,27.50
2024-04-13T09:22:40.188Z,27.40
2024-04-13T09:25:09.492Z,27.30
2024-04-13T09:27:36.806Z,27.30
2024-04-13T09:30:11.631Z,27.20
2024-04-13T09:32:38.977Z,27.10
2024-04-13T09:35:10.629Z,27.20
2024-04-13T09:37:37.938Z,27.20
2024-04-13T09:40:06.004Z,27.20
2024-04-13T09:42:33.343Z,27.20
2024-04-13T09:45:12.970Z,27.20
2024-04-13T09:47:40.080Z,27.20
2024-04-13T09:50:07.471Z,27.20
2024-04-13T09:52:34.878Z,27.30
2024-04-13T09:55:02.980Z,27.40
2024-04-13T09:57:30.038Z,27.60
2024-04-13T09:59:57.586Z,27.80
2024-04-13T10:02:24.817Z,28.10
2024-04-13T10:04:51.890Z,28.50
2024-04-13T10:07:20.945Z,28.80
2024-04-13T10:09:56.107Z,29.10
2024-04-13T10:12:27.982Z,29.30
2024-04-13T10:14:57.435Z,29.40
2024-04-13T10:17:24.671Z,29.40
2024-04-13T10:19:51.902Z,29.50
2024-04-13T10:22:28.530Z,29.70
2024-04-13T10:25:09.166Z,29.90
2024-04-13T10:27:36.860Z,30.20
2024-04-13T10:30:04.762Z,30.30
2024-04-13T10:32:32.181Z,30.40
2024-04-13T10:35:12.844Z,30.40
2024-04-13T10:37:40.486Z,30.40
2024-04-13T10:40:09.899Z,30.30
2024-04-13T10:42:40.887Z,30.20
2024-04-13T10:45:18.744Z,30.10
2024-04-13T10:47:46.575Z,29.90
2024-04-13T10:50:15.264Z,29.80
2024-04-13T10:52:43.198Z,29.80
2024-04-13T10:55:14.235Z,29.90
2024-04-13T10:57:44.855Z,30.20
2024-04-13T11:00:12.512Z,30.60
2024-04-13T11:02:42.316Z,31.20
2024-04-13T11:05:16.264Z,31.80
2024-04-13T11:07:44.152Z,32.40
2024-04-13T11:10:11.229Z,32.90
2024-04-13T11:12:38.225Z,33.40
2024-04-13T11:15:05.591Z,33.60
2024-04-13T11:17:33.040Z,33.70
2024-04-13T11:20:00.415Z,33.70
2024-04-13T11:22:28.417Z,33.60
2024-04-13T11:24:56.904Z,33.40
2024-04-13T11:27:24.780Z,33.20
2024-04-13T11:29:52.088Z,32.90
2024-04-13T11:32:19.671Z,32.70
2024-04-13T11:34:46.716Z,32.40
2024-04-13T11:37:17.109Z,32.10
2024-04-13T11:39:47.021Z,31.90
2024-04-13T11:42:15.247Z,31.70
2024-04-13T11:44:42.483Z,31.70
2024-04-13T11:47:10.240Z,31.80
2024-04-13T11:49:41.756Z,32.20
2024-04-13T11:52:19.035Z,32.80
2024-04-13T11:54:48.191Z,33.60
2024-04-13T11:57:15.429Z,34.40
2024-04-13T11:59:42.473Z,35.10
2024-04-13T12:02:09.732Z,35.70
2024-04-13T12:04:37.141Z,36.00
2024-04-13T12:07:04.308Z,36.00
2024-04-13T12:09:31.504Z,35.90
2024-04-13T12:12:01.590Z,35.70
2024-04-13T12:14:39.327Z,35.40
2024-04-13T12:17:12.366Z,35.10
2024-04-13T12:19:40.347Z,34.70
2024-04-13T12:22:08.713Z,34.30
2024-04-13T12:24:36.930Z,34.00
2024-04-13T12:27:06.001Z,33.70
2024-04-13T12:29:34.011Z,33.40
2024-04-13T12:32:01.631Z,33.10
2024-04-13T12:34:28.728Z,33.00
2024-04-13T12:36:55.784Z,33.00
2024-04-13T12:39:22.793Z,33.20
2024-04-13T12:41:49.865Z,33.30
2024-04-13T12:44:16.797Z,33.30
2024-04-13T12:46:44.389Z,33.30
2024-04-13T12:49:11.424Z,33.30
2024-04-13T12:51:38.488Z,33.30
2024-04-13T12:54:05.522Z,33.50
2024-04-13T12:56:32.486Z,33.90
2024-04-13T12:58:59.444Z,34.50
2024-04-13T13:01:28.074Z,35.10
2024-04-13T13:03:55.193Z,35.70
2024-04-13T13:06:22.574Z,36.30
2024-04-13T13:08:49.652Z,36.80
2024-04-13T13:11:16.617Z,37.10
2024-04-13T13:13:43.551Z,37.10
2024-04-13T13:16:10.645Z,36.90
2024-04-13T13:18:37.791Z,36.70
2024-04-13T13:21:05.721Z,36.40
2024-04-13T13:23:32.699Z,36.00
2024-04-13T13:25:59.723Z,35.60
2024-04-13T13:28:26.790Z,35.30
2024-04-13T13:30:54.897Z,35.00
2024-04-13T13:33:22.056Z,34.60
2024-04-13T13:35:49.046Z,34.30
2024-04-13T13:38:16.019Z,34.10
2024-04-13T13:40:42.989Z,33.80
2024-04-13T13:43:09.949Z,33.60
2024-04-13T13:45:37.468Z,33.40
2024-04-13T13:48:04.906Z,33.20
2024-04-13T13:50:31.887Z,33.00
2024-04-13T13:52:58.959Z,32.90
2024-04-13T13:55:25.925Z,32.80
2024-04-13T13:57:53.028Z,32.60
2024-04-13T14:00:22.043Z,32.50
2024-04-13T14:02:49.151Z,32.50
2024-04-13T14:05:16.335Z,32.40
2024-04-13T14:07:43.356Z,32.30
2024-04-13T14:10:10.296Z,32.30
2024-04-13T14:12:37.402Z,32.30
2024-04-13T14:15:05.093Z,32.20
2024-04-13T14:17:32.277Z,32.30
2024-04-13T14:19:59.273Z,32.40
2024-04-13T14:22:26.311Z,32.70
2024-04-13T14:24:53.259Z,33.10
2024-04-13T14:27:20.275Z,33.70
2024-04-13T14:29:47.251Z,34.40
2024-04-13T14:32:15.311Z,35.10
2024-04-13T14:34:42.521Z,35.70
2024-04-13T14:37:10.242Z,36.40
2024-04-13T14:39:37.286Z,37.00
2024-04-13T14:42:04.515Z,37.60
2024-04-13T14:44:31.558Z,38.10
2024-04-13T14:46:58.493Z,38.60
2024-04-13T14:49:25.769Z,39.10
2024-04-13T14:51:53.032Z,39.60
2024-04-13T14:54:20.074Z,40.10
2024-04-13T14:56:47.402Z,40.50
2024-04-13T14:59:14.425Z,40.80
2024-04-13T15:01:42.667Z,41.20
2024-04-13T15:04:10.544Z,41.50
2024-04-13T15:06:37.598Z,41.80
2024-04-13T15:09:04.611Z,42.00
2024-04-13T15:11:31.750Z,42.20
2024-04-13T15:13:58.828Z,42.40
2024-04-13T15:16:25.816Z,42.60
2024-04-13T15:18:52.900Z,42.80
2024-04-13T15:21:20.048Z,43.00
2024-04-13T15:23:47.452Z,43.20
2024-04-13T15:26:14.436Z,43.30
2024-04-13T15:28:41.584Z,43.50
2024-04-13T15:31:09.113Z,43.60
2024-04-13T15:33:36.876Z,43.60
2024-04-13T15:36:04.292Z,43.80
2024-04-13T15:38:31.248Z,43.80
2024-04-13T15:40:58.190Z,43.90
2024-04-13T15:43:25.165Z,43.90
2024-04-13T15:45:53.071Z,43.90
2024-04-13T15:48:20.738Z,43.80
2024-04-13T15:50:48.154Z,43.80
2024-04-13T15:53:15.103Z,43.80
2024-04-13T15:55:43.278Z,43.70
2024-04-13T15:58:11.792Z,43.70
2024-04-13T16:00:39.057Z,43.60
2024-04-13T16:03:06.371Z,43.60
2024-04-13T16:05:33.406Z,43.50
2024-04-13T16:08:00.479Z,43.40
2024-04-13T16:10:27.420Z,43.20
2024-04-13T16:12:54.560Z,43.10
2024-04-13T16:15:21.565Z,42.90
2024-04-13T16:17:48.788Z,42.80
2024-04-13T16:20:17.866Z,42.70
2024-04-13T16:22:48.088Z,42.60
2024-04-13T16:25:15.207Z,42.50
2024-04-13T16:27:42.256Z,42.30
2024-04-13T16:30:09.710Z,42.10
2024-04-13T16:32:36.804Z,41.90
2024-04-13T16:35:05.748Z,41.50
2024-04-13T16:37:32.683Z,41.00
2024-04-13T16:40:00.531Z,40.30
2024-04-13T16:42:28.375Z,39.60
2024-04-13T16:44:55.339Z,39.00
2024-04-13T16:47:22.349Z,38.30
2024-04-13T16:49:52.184Z,37.70
2024-04-13T16:52:19.137Z,37.10
2024-04-13T16:54:46.193Z,36.60
2024-04-13T16:57:13.461Z,36.10
2024-04-13T16:59:40.470Z,35.60
2024-04-13T17:02:07.470Z,35.20
2024-04-13T17:04:34.832Z,34.80
2024-04-13T17:07:01.827Z,34.50
2024-04-13T17:09:28.897Z,34.20
2024-04-13T17:11:55.906Z,33.90
2024-04-13T17:14:22.889Z,33.60
2024-04-13T17:16:49.837Z,33.30
2024-04-13T17:19:16.847Z,33.10
2024-04-13T17:21:43.927Z,32.90
2024-04-13T17:24:10.937Z,32.70
2024-04-13T17:26:38.127Z,32.50
2024-04-13T17:29:05.522Z,32.30
2024-04-13T17:31:32.597Z,32.20
2024-04-13T17:33:59.654Z,32.00
2024-04-13T17:36:28.184Z,31.90
2024-04-13T17:38:55.207Z,31.80
2024-04-13T17:41:22.288Z,31.60
2024-04-13T17:43:49.617Z,31.50
2024-04-13T17:46:16.863Z,31.40
2024-04-13T17:48:43.936Z,31.20
2024-04-13T17:51:11.291Z,31.10
2024-04-13T17:53:38.370Z,31.10
2024-04-13T17:56:05.788Z,31.00
2024-04-13T17:58:32.750Z,30.80
2024-04-13T18:00:59.807Z,30.80
2024-04-13T18:03:26.850Z,30.70
2024-04-13T18:05:53.889Z,30.60
2024-04-13T18:08:20.903Z,30.50
2024-04-13T18:10:47.870Z,30.40
2024-04-13T18:13:14.821Z,30.30
2024-04-13T18:15:42.392Z,30.20
2024-04-13T18:18:09.869Z,30.10
2024-04-13T18:20:36.909Z,30.00
2024-04-13T18:23:04.550Z,29.90
2024-04-13T18:25:31.519Z,29.90
2024-04-13T18:27:58.560Z,29.80
2024-04-13T18:30:25.553Z,29.80
2024-04-13T18:32:52.722Z,29.70
2024-04-13T18:35:19.762Z,29.70
2024-04-13T18:37:47.791Z,29.60
2024-04-13T18:40:14.821Z,29.50
2024-04-13T18:42:41.949Z,29.50
2024-04-13T18:45:11.622Z,29.40
2024-04-13T18:47:39.422Z,29.40
2024-04-13T18:50:07.157Z,29.30
2024-04-13T18:52:34.131Z,29.30
2024-04-13T18:55:01.228Z,29.20
2024-04-13T18:57:28.249Z,29.20
2024-04-13T18:59:55.318Z,29.10
2024-04-13T19:02:22.367Z,29.10
2024-04-13T19:04:49.366Z,29.00
2024-04-13T19:07:16.307Z,28.90
2024-04-13T19:09:43.325Z,28.90
2024-04-13T19:12:10.311Z,28.90
2024-04-13T19:14:37.257Z,28.80
2024-04-13T19:17:04.450Z,28.80
2024-04-13T19:19:31.506Z,28.70
2024-04-13T19:21:59.115Z,28.70
2024-04-13T19:24:26.311Z,28.70
2024-04-13T19:26:53.343Z,28.60
2024-04-13T19:29:20.692Z,28.50
2024-04-13T19:31:47.716Z,28.50
2024-04-13T19:34:14.920Z,28.50
2024-04-13T19:36:41.960Z,28.50
2024-04-13T19:39:11.042Z,28.40
2024-04-13T19:41:42.749Z,28.40
2024-04-13T19:44:11.466Z,28.40
2024-04-13T19:46:38.486Z,28.40
2024-04-13T19:49:05.544Z,28.30
2024-04-13T19:51:33.321Z,28.30
2024-04-13T19:54:00.466Z,28.30
2024-04-13T19:56:27.433Z,28.30
2024-04-13T19:58:54.635Z,28.20
2024-04-13T20:01:21.747Z,28.20
2024-04-13T20:03:48.921Z,28.20
2024-04-13T20:06:16.016Z,28.10
2024-04-13T20:08:45.612Z,28.20
2024-04-13T20:11:12.752Z,28.10
2024-04-13T20:13:41.205Z,28.10
2024-04-13T20:16:26.848Z,28.00
2024-04-13T20:18:54.129Z,28.00
2024-04-13T20:21:21.148Z,27.90
2024-04-13T20:23:48.134Z,27.90
2024-04-13T20:26:15.102Z,27.80
2024-04-13T20:28:42.113Z,27.80
2024-04-13T20:31:11.390Z,27.70
2024-04-13T20:33:38.627Z,27.70
2024-04-13T20:36:06.189Z,27.60
2024-04-13T20:38:33.749Z,27.60
2024-04-13T20:41:01.347Z,27.60
2024-04-13T20:43:28.536Z,27.50
2024-04-13T20:45:55.609Z,27.50
2024-04-13T20:48:22.661Z,27.50
2024-04-13T20:50:49.655Z,27.40
2024-04-13T20:53:17.197Z,27.40
2024-04-13T20:55:44.400Z,27.30
2024-04-13T20:58:11.391Z,27.30
2024-04-13T21:00:38.785Z,27.30
2024-04-13T21:03:06.358Z,27.20
2024-04-13T21:05:34.687Z,27.20
2024-04-13T21:08:03.124Z,27.10
2024-04-13T21:10:31.537Z,27.10
2024-04-13T21:12:58.835Z,27.10
2024-04-13T21:15:26.193Z,27.10
2024-04-13T21:17:53.448Z,27.00
2024-04-13T21:20:20.536Z,27.00
2024-04-13T21:22:48.055Z,27.00
2024-04-13T21:25:15.201Z,27.00
2024-04-13T21:27:42.210Z,26.90
2024-04-13T21:30:09.610Z,26.90
2024-04-13T21:32:36.921Z,26.90
2024-04-13T21:35:04.790Z,26.90
2024-04-13T21:37:31.981Z,26.80
2024-04-13T21:39:59.177Z,26.80
2024-04-13T21:42:27.216Z,26.80
2024-04-13T21:44:54.215Z,26.70
2024-04-13T21:47:21.184Z,26.70
2024-04-13T21:49:48.133Z,26.60
2024-04-13T21:52:15.058Z,26.60
2024-04-13T21:54:42.064Z,26.50
2024-04-13T21:57:11.591Z,26.50
2024-04-13T21:59:38.869Z,26.40
2024-04-13T22:02:05.940Z,26.40
2024-04-13T22:04:33.058Z,26.40
2024-04-13T22:07:00.127Z,26.30
2024-04-13T22:09:27.144Z,26.30
2024-04-13T22:11:54.067Z,26.30
2024-04-13T22:14:21.077Z,26.30
2024-04-13T22:16:48.196Z,26.20
2024-04-13T22:19:15.208Z,26.20
2024-04-13T22:21:47.151Z,26.20
2024-04-13T22:24:14.213Z,26.20
2024-04-13T22:26:41.623Z,26.10
2024-04-13T22:29:09.019Z,26.10
2024-04-13T22:31:40.600Z,26.10
2024-04-13T22:34:09.283Z,26.00
2024-04-13T22:36:36.948Z,26.00
2024-04-13T22:39:04.314Z,26.00
2024-04-13T22:41:31.465Z,25.90
2024-04-13T22:43:59.378Z,25.90
2024-04-13T22:46:26.889Z,25.90
2024-04-13T22:48:53.980Z,25.80
2024-04-13T22:51:21.001Z,25.80
2024-04-13T22:53:47.974Z,25.80
2024-04-13T22:56:14.942Z,25.70
2024-04-13T22:58:41.920Z,25.70
2024-04-13T23:01:08.957Z,25.70
2024-04-13T23:03:36.107Z,25.60
2024-04-13T23:06:03.281Z,25.60
2024-04-13T23:08:30.307Z,25.50
2024-04-13T23:10:57.364Z,25.50
2024-04-13T23:13:24.424Z,25.40
2024-04-13T23:15:51.664Z,25.40
2024-04-13T23:18:19.888Z,25.40
2024-04-13T23:20:48.248Z,25.30
2024-04-13T23:23:16.113Z,25.30
2024-04-13T23:25:46.602Z,25.20
2024-04-13T23:28:13.922Z,25.20
2024-04-13T23:30:41.218Z,25.20
2024-04-13T23:33:08.183Z,25.10
2024-04-13T23:35:35.116Z,25.00
2024-04-13T23:38:02.173Z,25.00
2024-04-13T23:40:30.157Z,25.00
2024-04-13T23:42:57.192Z,24.90
2024-04-13T23:45:24.825Z,24.90
2024-04-13T23:47:51.876Z,24.80
2024-04-13T23:50:21.605Z,24.80
2024-04-13T23:52:49.121Z,24.80
2024-04-13T23:55:16.161Z,24.70
2024-04-13T23:57:45.757Z,24.70
